Terminal Aerodrome Forecast
Issued by NWS

Home | Current Version | Previous Version | Text Only | Print | Product List | Glossary On
Versions: 1 2 3 4 5 6 7 8 9 10 11 12 13 14 15 16 17 18 19 20 21 22 23
000
FTUS44 KLZK 271302 AAA
TAFHRO
TAF AMD
KHRO 271302Z 2713/2812 VRB05KT 5SM BR SCT001
      TEMPO 2713/2715 1SM BR BKN001
     FM271500 12006KT P6SM FEW050 SCT250
     FM280600 VRB05KT P6SM VCFG SCT250=

USA.gov is the U.S. government's official web portal to all federal, state and local government web resources and services.